createdAt,value
2022-12-04T00:00:59.432Z,2.39
2022-12-04T00:01:59.480Z,2.38
2022-12-04T00:02:59.477Z,2.36
2022-12-04T00:03:59.430Z,2.38
2022-12-04T00:04:59.484Z,2.36
2022-12-04T00:05:59.445Z,2.39
2022-12-04T00:06:59.377Z,2.39
2022-12-04T00:07:59.461Z,2.39
2022-12-04T00:08:59.363Z,2.36
2022-12-04T00:09:59.357Z,2.38
2022-12-04T00:10:59.333Z,2.35
2022-12-04T00:11:59.346Z,2.36
2022-12-04T00:12:59.326Z,2.36
2022-12-04T00:14:06.112Z,2.38
2022-12-04T00:15:58.342Z,2.31
2022-12-04T00:16:59.272Z,2.34
2022-12-04T00:17:59.296Z,2.31
2022-12-04T00:18:59.260Z,2.34
2022-12-04T00:19:59.250Z,2.36
2022-12-04T00:20:59.226Z,2.38
2022-12-04T00:21:59.241Z,2.38
2022-12-04T00:22:59.223Z,2.39
2022-12-04T00:23:59.233Z,2.39
2022-12-04T00:24:59.190Z,2.42
2022-12-04T00:25:59.188Z,2.41
2022-12-04T00:26:59.185Z,2.39
2022-12-04T00:27:59.170Z,2.39
2022-12-04T00:28:59.170Z,2.38
2022-12-04T00:29:59.145Z,2.38
2022-12-04T00:30:59.146Z,2.38
2022-12-04T00:31:59.223Z,2.39
2022-12-04T00:32:59.102Z,2.39
2022-12-04T00:33:59.140Z,2.42
2022-12-04T00:34:59.091Z,2.42
2022-12-04T00:35:59.115Z,2.43
2022-12-04T00:36:59.059Z,2.46
2022-12-04T00:37:59.065Z,2.45
2022-12-04T00:38:59.038Z,2.46
2022-12-04T00:39:59.076Z,2.46
2022-12-04T00:40:59.033Z,2.42
2022-12-04T00:41:59.060Z,2.41
2022-12-04T00:42:59.014Z,2.36
2022-12-04T00:43:59.017Z,2.35
2022-12-04T00:44:59.016Z,2.36
2022-12-04T00:45:59.041Z,2.34
2022-12-04T00:46:58.959Z,2.31
2022-12-04T00:47:58.980Z,2.30
2022-12-04T00:48:58.941Z,2.34
2022-12-04T00:49:58.997Z,2.31
2022-12-04T00:50:58.931Z,2.34
2022-12-04T00:51:58.955Z,2.34
2022-12-04T00:52:58.914Z,2.34
2022-12-04T00:53:57.895Z,2.35
2022-12-04T00:54:58.875Z,2.35
2022-12-04T00:55:58.897Z,2.41
2022-12-04T00:56:58.867Z,2.42
2022-12-04T00:58:00.141Z,2.45
2022-12-04T00:58:58.857Z,2.48
2022-12-04T00:59:58.838Z,2.45
2022-12-04T01:00:58.853Z,2.43
2022-12-04T01:01:58.838Z,2.43
2022-12-04T01:02:58.827Z,2.46
2022-12-04T01:03:58.788Z,2.48
2022-12-04T01:04:58.764Z,2.49
2022-12-04T01:05:58.776Z,2.49
2022-12-04T01:07:04.678Z,2.48
2022-12-04T01:07:58.841Z,2.48
2022-12-04T01:08:58.737Z,2.46
2022-12-04T01:09:58.727Z,2.48
2022-12-04T01:10:58.709Z,2.46
2022-12-04T01:11:58.727Z,2.43
2022-12-04T01:12:58.691Z,2.41
2022-12-04T01:13:58.703Z,2.42
2022-12-04T01:14:58.667Z,2.41
2022-12-04T01:15:58.830Z,2.42
2022-12-04T01:16:58.776Z,2.43
2022-12-04T01:17:58.660Z,2.45
2022-12-04T01:18:58.630Z,2.46
2022-12-04T01:19:58.644Z,2.48
2022-12-04T01:20:58.601Z,2.46
2022-12-04T01:21:58.635Z,2.49
2022-12-04T01:22:58.582Z,2.45
2022-12-04T01:23:58.600Z,2.46
2022-12-04T01:24:58.553Z,2.45
2022-12-04T01:25:58.575Z,2.43
2022-12-04T01:26:58.536Z,2.46
2022-12-04T01:27:58.562Z,2.48
2022-12-04T01:28:58.556Z,2.52
2022-12-04T01:29:58.530Z,2.53
2022-12-04T01:30:58.518Z,2.56
2022-12-04T01:31:58.510Z,2.59
2022-12-04T01:32:58.475Z,2.60
2022-12-04T01:33:58.492Z,2.59
2022-12-04T01:34:58.466Z,2.57
2022-12-04T01:35:58.458Z,2.59
2022-12-04T01:36:58.428Z,2.57
2022-12-04T01:37:58.439Z,2.57
2022-12-04T01:38:58.412Z,2.59
2022-12-04T01:39:58.467Z,2.57
2022-12-04T01:40:58.389Z,2.59
2022-12-04T01:41:58.425Z,2.54
2022-12-04T01:42:58.365Z,2.52
2022-12-04T01:43:58.389Z,2.49
2022-12-04T01:44:58.353Z,2.53
2022-12-04T01:45:58.527Z,2.53
2022-12-04T01:46:58.327Z,2.54
2022-12-04T01:47:58.343Z,2.56
2022-12-04T01:48:58.310Z,2.54
2022-12-04T01:49:58.434Z,2.54
2022-12-04T01:50:58.300Z,2.53
2022-12-04T01:51:58.293Z,2.53
2022-12-04T01:52:58.265Z,2.53
2022-12-04T01:53:58.293Z,2.56
2022-12-04T01:54:58.278Z,2.56
2022-12-04T01:55:58.263Z,2.54
2022-12-04T01:56:58.239Z,2.56
2022-12-04T01:57:58.227Z,2.57
2022-12-04T01:58:58.213Z,2.59
2022-12-04T01:59:58.402Z,2.57
2022-12-04T02:00:59.105Z,2.59
2022-12-04T02:01:58.395Z,2.59
2022-12-04T02:02:58.394Z,2.59
2022-12-04T02:03:58.166Z,2.57
2022-12-04T02:04:58.138Z,2.60
2022-12-04T02:05:58.156Z,2.60
2022-12-04T02:06:58.116Z,2.59
2022-12-04T02:07:58.241Z,2.61
2022-12-04T02:08:58.103Z,2.61
2022-12-04T02:09:58.478Z,2.61
2022-12-04T02:10:58.078Z,2.64
2022-12-04T02:11:58.095Z,2.64
2022-12-04T02:12:58.063Z,2.66
2022-12-04T02:13:58.096Z,2.69
2022-12-04T02:14:58.042Z,2.69
2022-12-04T02:15:58.052Z,2.71
2022-12-04T02:16:58.057Z,2.71
2022-12-04T02:17:58.017Z,2.71
2022-12-04T02:18:58.009Z,2.67
2022-12-04T02:19:58.187Z,2.69
2022-12-04T02:20:57.985Z,2.71
2022-12-04T02:21:57.991Z,2.69
2022-12-04T02:22:57.952Z,2.71
2022-12-04T02:23:57.987Z,2.69
2022-12-04T02:24:57.929Z,2.72
2022-12-04T02:25:57.955Z,2.72
2022-12-04T02:26:57.914Z,2.74
2022-12-04T02:27:57.928Z,2.72
2022-12-04T02:28:57.912Z,2.75
2022-12-04T02:29:58.186Z,2.74
2022-12-04T02:30:57.920Z,2.77
2022-12-04T02:31:57.889Z,2.75
2022-12-04T02:32:57.849Z,2.75
2022-12-04T02:33:57.868Z,2.75
2022-12-04T02:34:57.849Z,2.77
2022-12-04T02:35:57.847Z,2.75
2022-12-04T02:36:57.802Z,2.75
2022-12-04T02:37:57.821Z,2.75
2022-12-04T02:38:57.790Z,2.77
2022-12-04T02:39:58.103Z,2.77
2022-12-04T02:40:57.769Z,2.78
2022-12-04T02:41:57.798Z,2.78
2022-12-04T02:42:57.751Z,2.79
2022-12-04T02:43:57.776Z,2.82
2022-12-04T02:44:57.747Z,2.81
2022-12-04T02:45:57.797Z,2.84
2022-12-04T02:46:57.710Z,2.84
2022-12-04T02:47:57.711Z,2.84
2022-12-04T02:48:57.683Z,2.85
2022-12-04T02:49:58.108Z,2.85
2022-12-04T02:50:57.707Z,2.85
2022-12-04T02:51:57.682Z,2.84
2022-12-04T02:52:57.662Z,2.85
2022-12-04T02:53:57.644Z,2.87
2022-12-04T02:54:57.656Z,2.85
2022-12-04T02:55:57.615Z,2.85
2022-12-04T02:56:57.638Z,2.85
2022-12-04T02:58:00.164Z,2.85
2022-12-04T02:58:57.597Z,2.85
2022-12-04T02:59:57.960Z,2.84
2022-12-04T03:00:57.644Z,2.84
2022-12-04T03:01:57.577Z,2.85
2022-12-04T03:02:57.632Z,2.84
2022-12-04T03:03:57.551Z,2.85
2022-12-04T03:04:57.554Z,2.84
2022-12-04T03:05:57.508Z,2.85
2022-12-04T03:06:57.539Z,2.85
2022-12-04T03:07:57.558Z,2.85
2022-12-04T03:08:57.494Z,2.87
2022-12-04T03:09:57.696Z,2.87
2022-12-04T03:10:57.481Z,2.87
2022-12-04T03:11:57.454Z,2.87
2022-12-04T03:12:57.532Z,2.87
2022-12-04T03:13:57.438Z,2.87
2022-12-04T03:14:57.444Z,2.89
2022-12-04T03:15:57.412Z,2.89
2022-12-04T03:16:57.510Z,2.87
2022-12-04T03:17:57.390Z,2.89
2022-12-04T03:18:57.462Z,2.90
2022-12-04T03:19:57.617Z,2.92
2022-12-04T03:20:57.398Z,2.92
2022-12-04T03:21:57.346Z,2.92
2022-12-04T03:22:57.373Z,2.92
2022-12-04T03:23:57.338Z,2.95
2022-12-04T03:24:57.348Z,2.96
2022-12-04T03:25:57.303Z,2.95
2022-12-04T03:26:57.331Z,2.95
2022-12-04T03:27:57.306Z,2.95
2022-12-04T03:28:57.316Z,2.92
2022-12-04T03:29:57.592Z,2.89
2022-12-04T03:30:57.392Z,2.87
2022-12-04T03:31:57.263Z,2.85
2022-12-04T03:32:57.249Z,2.87
2022-12-04T03:33:57.238Z,2.81
2022-12-04T03:34:57.240Z,2.81
2022-12-04T03:35:57.199Z,2.81
2022-12-04T03:36:57.231Z,2.79
2022-12-04T03:37:57.184Z,2.78
2022-12-04T03:38:57.202Z,2.82
2022-12-04T03:39:57.428Z,2.81
2022-12-04T03:40:57.165Z,2.82
2022-12-04T03:41:57.141Z,2.85
2022-12-04T03:42:57.196Z,2.87
2022-12-04T03:43:57.132Z,2.89
2022-12-04T03:44:57.128Z,2.89
2022-12-04T03:45:57.128Z,2.89
2022-12-04T03:46:57.121Z,2.90
2022-12-04T03:47:57.086Z,2.89
2022-12-04T03:48:57.109Z,2.93
2022-12-04T03:49:57.460Z,2.95
2022-12-04T03:50:57.089Z,2.97
2022-12-04T03:51:57.034Z,2.96
2022-12-04T03:52:57.045Z,2.96
2022-12-04T03:53:57.020Z,2.96
2022-12-04T03:54:57.022Z,2.95
2022-12-04T03:55:57.014Z,2.95
2022-12-04T03:56:57.035Z,2.95
2022-12-04T03:57:56.989Z,2.96
2022-12-04T03:58:57.020Z,2.95
2022-12-04T03:59:57.380Z,2.96
2022-12-04T04:00:56.980Z,2.97
2022-12-04T04:01:57.010Z,2.97
2022-12-04T04:02:57.068Z,2.99
2022-12-04T04:03:56.929Z,3.00
2022-12-04T04:04:56.917Z,2.99
2022-12-04T04:05:56.897Z,2.99
2022-12-04T04:06:56.913Z,2.97
2022-12-04T04:07:56.932Z,2.99
2022-12-04T04:08:56.895Z,2.99
2022-12-04T04:09:57.340Z,2.99
2022-12-04T04:10:56.901Z,3.00
2022-12-04T04:11:56.843Z,3.00
2022-12-04T04:12:56.860Z,3.02
2022-12-04T04:13:56.825Z,3.00
2022-12-04T04:14:56.845Z,3.03
2022-12-04T04:15:56.808Z,3.00
2022-12-04T04:16:56.808Z,3.02
2022-12-04T04:17:56.781Z,3.00
2022-12-04T04:18:56.786Z,2.99
2022-12-04T04:19:57.102Z,3.03
2022-12-04T04:20:56.755Z,3.03
2022-12-04T04:21:56.739Z,3.03
2022-12-04T04:22:56.751Z,3.00
2022-12-04T04:23:56.747Z,3.00
2022-12-04T04:24:56.713Z,3.00
2022-12-04T04:25:56.707Z,2.96
2022-12-04T04:26:56.694Z,2.97
2022-12-04T04:27:56.668Z,2.95
2022-12-04T04:28:56.667Z,2.95
2022-12-04T04:29:56.825Z,2.93
2022-12-04T04:30:56.745Z,2.92
2022-12-04T04:31:56.626Z,2.89
2022-12-04T04:32:56.653Z,2.89
2022-12-04T04:33:56.617Z,2.90
2022-12-04T04:34:56.619Z,2.90
2022-12-04T04:35:56.592Z,2.93
2022-12-04T04:36:56.586Z,2.89
2022-12-04T04:37:56.599Z,2.90
2022-12-04T04:38:56.569Z,2.92
2022-12-04T04:39:57.013Z,2.95
2022-12-04T04:40:56.550Z,2.93
2022-12-04T04:41:56.516Z,2.95
2022-12-04T04:42:56.536Z,2.95
2022-12-04T04:43:56.499Z,2.96
2022-12-04T04:44:56.516Z,2.97
2022-12-04T04:45:56.509Z,2.99
2022-12-04T04:46:56.543Z,2.96
2022-12-04T04:47:56.459Z,2.95
2022-12-04T04:48:56.458Z,2.95
2022-12-04T04:49:56.648Z,2.96
2022-12-04T04:50:56.469Z,2.96
2022-12-04T04:51:56.411Z,2.96
2022-12-04T04:52:56.446Z,2.97
2022-12-04T04:53:56.391Z,2.99
2022-12-04T04:54:56.398Z,3.00
2022-12-04T04:55:56.374Z,3.00
2022-12-04T04:56:56.393Z,3.00
2022-12-04T04:57:56.363Z,2.99
2022-12-04T04:58:56.381Z,2.97
2022-12-04T04:59:56.664Z,2.96
2022-12-04T05:00:56.367Z,2.97
2022-12-04T05:01:56.325Z,2.97
2022-12-04T05:02:56.431Z,2.97
2022-12-04T05:03:56.293Z,2.99
2022-12-04T05:04:56.331Z,2.96
2022-12-04T05:05:56.271Z,2.96
2022-12-04T05:06:56.300Z,2.96
2022-12-04T05:07:56.338Z,2.97
2022-12-04T05:08:56.277Z,2.96
2022-12-04T05:09:56.442Z,2.97
2022-12-04T05:10:56.246Z,2.96
2022-12-04T05:11:56.206Z,2.97
2022-12-04T05:12:56.246Z,2.99
2022-12-04T05:13:56.178Z,3.00
2022-12-04T05:14:56.216Z,3.03
2022-12-04T05:15:56.216Z,3.05
2022-12-04T05:17:01.311Z,3.06
2022-12-04T05:17:56.153Z,3.06
2022-12-04T05:18:56.157Z,3.08
2022-12-04T05:19:56.696Z,3.08
2022-12-04T05:20:56.135Z,3.08
2022-12-04T05:21:56.115Z,3.08
2022-12-04T05:22:56.104Z,3.08
2022-12-04T05:23:56.094Z,3.08
2022-12-04T05:24:56.130Z,3.10
2022-12-04T05:25:56.055Z,3.10
2022-12-04T05:26:56.082Z,3.10
2022-12-04T05:27:56.047Z,3.11
2022-12-04T05:28:56.068Z,3.11
2022-12-04T05:29:56.325Z,3.11
2022-12-04T05:30:56.090Z,3.10
2022-12-04T05:31:55.995Z,3.11
2022-12-04T05:32:56.026Z,3.13
2022-12-04T05:33:55.976Z,3.14
2022-12-04T05:34:55.997Z,3.17
2022-12-04T05:35:55.969Z,3.18
2022-12-04T05:36:55.962Z,3.18
2022-12-04T05:37:55.945Z,3.17
2022-12-04T05:38:55.952Z,3.17
2022-12-04T05:39:56.321Z,3.17
2022-12-04T05:40:55.958Z,3.17
2022-12-04T05:41:55.908Z,3.18
2022-12-04T05:42:55.915Z,3.18
2022-12-04T05:43:55.868Z,3.17
2022-12-04T05:44:55.890Z,3.17
2022-12-04T05:45:55.878Z,3.17
2022-12-04T05:46:55.907Z,3.14
2022-12-04T05:47:55.830Z,3.15
2022-12-04T05:48:55.860Z,3.17
2022-12-04T05:49:56.088Z,3.17
2022-12-04T05:50:55.835Z,3.15
2022-12-04T05:51:55.806Z,3.15
2022-12-04T05:52:55.792Z,3.14
2022-12-04T05:53:55.806Z,3.15
2022-12-04T05:54:55.797Z,3.11
2022-12-04T05:55:55.749Z,3.10
2022-12-04T05:56:55.763Z,3.10
2022-12-04T05:57:55.737Z,3.10
2022-12-04T05:58:55.745Z,3.11
2022-12-04T05:59:55.979Z,3.14
2022-12-04T06:00:55.720Z,3.14
2022-12-04T06:01:55.722Z,3.13
2022-12-04T06:02:55.770Z,3.11
2022-12-04T06:03:55.671Z,3.10
2022-12-04T06:04:55.687Z,3.08
2022-12-04T06:05:55.645Z,3.06
2022-12-04T06:06:55.670Z,3.03
2022-12-04T06:07:55.644Z,3.05
2022-12-04T06:08:55.623Z,3.05
2022-12-04T06:09:55.982Z,3.05
2022-12-04T06:10:55.632Z,3.06
2022-12-04T06:11:55.578Z,3.06
2022-12-04T06:12:55.601Z,3.10
2022-12-04T06:13:55.584Z,3.11
2022-12-04T06:14:55.576Z,3.11
2022-12-04T06:15:55.591Z,3.11
2022-12-04T06:16:55.642Z,3.11
2022-12-04T06:17:55.531Z,3.11
2022-12-04T06:18:55.533Z,3.13
2022-12-04T06:19:55.882Z,3.11
2022-12-04T06:20:55.555Z,3.10
2022-12-04T06:21:55.588Z,3.11
2022-12-04T06:22:55.509Z,3.11
2022-12-04T06:23:55.463Z,3.10
2022-12-04T06:24:55.474Z,3.11
2022-12-04T06:25:56.342Z,3.11
2022-12-04T06:27:26.337Z,3.11
2022-12-04T06:27:55.437Z,3.11
2022-12-04T06:28:55.420Z,3.13
2022-12-04T06:29:55.721Z,3.13
2022-12-04T06:30:55.362Z,3.11
2022-12-04T06:31:55.462Z,3.13
2022-12-04T06:32:55.357Z,3.14
2022-12-04T06:33:55.310Z,3.14
2022-12-04T06:34:55.333Z,3.17
2022-12-04T06:35:55.352Z,3.15
2022-12-04T06:36:55.335Z,3.14
2022-12-04T06:37:55.274Z,3.13
2022-12-04T06:38:55.283Z,3.13
2022-12-04T06:39:55.676Z,3.15
2022-12-04T06:40:55.245Z,3.17
2022-12-04T06:41:55.269Z,3.17
2022-12-04T06:42:55.247Z,3.15
2022-12-04T06:43:55.214Z,3.14
2022-12-04T06:44:55.229Z,3.14
2022-12-04T06:45:55.211Z,3.11
2022-12-04T06:46:55.216Z,3.13
2022-12-04T06:47:55.154Z,3.14
2022-12-04T06:48:55.172Z,3.14
2022-12-04T06:49:55.372Z,3.15
2022-12-04T06:50:55.140Z,3.17
2022-12-04T06:51:55.142Z,3.18
2022-12-04T06:52:55.117Z,3.18
2022-12-04T06:53:55.091Z,3.18
2022-12-04T06:54:55.145Z,3.21
2022-12-04T06:55:55.103Z,3.24
2022-12-04T06:56:55.159Z,3.24
2022-12-04T06:57:55.087Z,3.24
2022-12-04T06:58:55.099Z,3.24
2022-12-04T06:59:55.481Z,3.28
2022-12-04T07:00:55.154Z,3.29
2022-12-04T07:01:55.109Z,3.33
2022-12-04T07:02:55.090Z,3.33
2022-12-04T07:03:54.997Z,3.33
2022-12-04T07:04:55.007Z,3.36
2022-12-04T07:05:54.964Z,3.33
2022-12-04T07:06:54.970Z,3.36
2022-12-04T07:07:55.000Z,3.36
2022-12-04T07:08:54.939Z,3.36
2022-12-04T07:09:55.301Z,3.36
2022-12-04T07:10:59.168Z,3.40
2022-12-04T07:11:54.973Z,3.40
2022-12-04T07:12:54.903Z,3.40
2022-12-04T07:13:54.902Z,3.42
2022-12-04T07:14:54.891Z,3.40
2022-12-04T07:15:54.889Z,3.40
2022-12-04T07:16:54.949Z,3.43
2022-12-04T07:17:54.863Z,3.43
2022-12-04T07:18:54.832Z,3.48
2022-12-04T07:19:55.084Z,3.48
2022-12-04T07:20:54.809Z,3.48
2022-12-04T07:21:54.813Z,3.48
2022-12-04T07:22:54.795Z,3.47
2022-12-04T07:23:54.818Z,3.42
2022-12-04T07:24:54.799Z,3.36
2022-12-04T07:25:54.790Z,3.36
2022-12-04T07:26:54.749Z,3.36
2022-12-04T07:27:54.776Z,3.35
2022-12-04T07:28:54.722Z,3.33
2022-12-04T07:29:55.090Z,3.35
2022-12-04T07:30:54.707Z,3.33
2022-12-04T07:31:54.855Z,3.33
2022-12-04T07:32:54.688Z,3.32
2022-12-04T07:33:54.700Z,3.33
2022-12-04T07:34:54.683Z,3.35
2022-12-04T07:35:54.683Z,3.36
2022-12-04T07:36:54.656Z,3.39
2022-12-04T07:37:54.645Z,3.39
2022-12-04T07:38:54.628Z,3.39
2022-12-04T07:39:54.944Z,3.40
2022-12-04T07:40:54.612Z,3.43
2022-12-04T07:41:54.601Z,3.45
2022-12-04T07:42:54.584Z,3.50
2022-12-04T07:43:54.581Z,3.50
2022-12-04T07:44:54.561Z,3.52
2022-12-04T07:45:54.677Z,3.52
2022-12-04T07:46:54.539Z,3.52
2022-12-04T07:47:54.540Z,3.57
2022-12-04T07:48:54.535Z,3.58
2022-12-04T07:49:54.830Z,3.60
2022-12-04T07:50:54.510Z,3.60
2022-12-04T07:51:54.542Z,3.61
2022-12-04T07:52:54.479Z,3.65
2022-12-04T07:53:54.547Z,3.69
2022-12-04T07:54:54.479Z,3.70
2022-12-04T07:55:54.481Z,3.72
2022-12-04T07:56:54.435Z,3.73
2022-12-04T07:57:54.437Z,3.72
2022-12-04T07:58:54.413Z,3.73
2022-12-04T07:59:54.673Z,3.73
2022-12-04T08:00:54.464Z,3.72
2022-12-04T08:01:54.491Z,3.73
2022-12-04T08:02:54.373Z,3.75
2022-12-04T08:03:54.416Z,3.78
2022-12-04T08:04:54.452Z,3.79
2022-12-04T08:05:54.384Z,3.80
2022-12-04T08:06:54.339Z,3.80
2022-12-04T08:07:54.451Z,3.83
2022-12-04T08:08:54.308Z,3.84
2022-12-04T08:09:54.780Z,3.86
2022-12-04T08:10:54.311Z,3.86
2022-12-04T08:11:54.349Z,3.86
2022-12-04T08:12:54.268Z,3.87
2022-12-04T08:13:54.277Z,3.87
2022-12-04T08:14:54.253Z,3.86
2022-12-04T08:15:54.254Z,3.87
2022-12-04T08:16:54.303Z,3.86
2022-12-04T08:17:54.273Z,3.84
2022-12-04T08:18:54.208Z,3.87
2022-12-04T08:19:54.667Z,3.86
2022-12-04T08:20:54.182Z,3.87
2022-12-04T08:21:54.209Z,3.87
2022-12-04T08:22:54.184Z,3.90
2022-12-04T08:23:54.190Z,3.93
2022-12-04T08:24:54.160Z,3.93
2022-12-04T08:25:54.147Z,3.96
2022-12-04T08:26:54.147Z,3.97
2022-12-04T08:27:54.140Z,3.97
2022-12-04T08:28:54.130Z,4.00
2022-12-04T08:29:54.474Z,4.00
2022-12-04T08:30:54.180Z,4.02
2022-12-04T08:31:54.104Z,4.02
2022-12-04T08:32:54.064Z,4.04
2022-12-04T08:33:54.093Z,4.02
2022-12-04T08:34:55.839Z,3.97
2022-12-04T08:35:54.057Z,3.94
2022-12-04T08:36:54.021Z,3.91
2022-12-04T08:37:54.026Z,3.90
2022-12-04T08:38:54.052Z,3.90
2022-12-04T08:39:54.255Z,3.91
2022-12-04T08:40:54.002Z,3.91
2022-12-04T08:41:57.111Z,3.96
2022-12-04T08:42:54.028Z,3.98
2022-12-04T08:43:53.069Z,4.04
2022-12-04T08:44:58.807Z,4.06
2022-12-04T08:45:54.122Z,4.09
2022-12-04T08:46:56.341Z,4.12
2022-12-04T08:47:54.316Z,4.14
2022-12-04T08:48:57.957Z,4.15
2022-12-04T08:49:54.492Z,4.15
2022-12-04T08:50:53.976Z,4.15
2022-12-04T08:51:54.260Z,4.14
2022-12-04T08:52:53.967Z,4.18
2022-12-04T08:53:53.960Z,4.20
2022-12-04T08:54:54.846Z,4.23
2022-12-04T08:55:54.002Z,4.26
2022-12-04T08:56:56.432Z,4.29
2022-12-04T08:57:54.209Z,4.30
2022-12-04T08:58:54.084Z,4.34
2022-12-04T08:59:54.793Z,4.36
2022-12-04T09:00:53.890Z,4.37
2022-12-04T09:01:54.970Z,4.34
2022-12-04T09:02:54.621Z,4.37
2022-12-04T09:03:55.868Z,4.36
2022-12-04T09:04:54.059Z,4.40
2022-12-04T09:05:54.349Z,4.41
2022-12-04T09:06:54.190Z,4.41
2022-12-04T09:07:52.857Z,4.42
2022-12-04T09:08:53.833Z,4.45
2022-12-04T09:09:53.819Z,4.48
2022-12-04T09:10:54.544Z,4.51
2022-12-04T09:11:55.646Z,4.51
2022-12-04T09:12:55.411Z,4.52
2022-12-04T09:13:53.765Z,4.54
2022-12-04T09:14:53.741Z,4.58
2022-12-04T09:15:54.073Z,4.60
2022-12-04T09:16:53.957Z,4.58
2022-12-04T09:17:55.677Z,4.62
2022-12-04T09:18:57.284Z,4.62
2022-12-04T09:20:01.199Z,4.65
2022-12-04T09:20:53.671Z,4.66
2022-12-04T09:21:53.695Z,4.69
2022-12-04T09:23:04.043Z,4.72
2022-12-04T09:23:53.670Z,4.73
2022-12-04T09:24:54.374Z,4.70
2022-12-04T09:25:55.619Z,4.66
2022-12-04T09:26:54.413Z,4.66
2022-12-04T09:27:54.507Z,4.66
2022-12-04T09:28:52.638Z,4.72
2022-12-04T09:29:53.876Z,4.70
2022-12-04T09:30:53.602Z,4.72
2022-12-04T09:31:53.522Z,4.70
2022-12-04T09:32:53.519Z,4.72
2022-12-04T09:33:53.515Z,4.73
2022-12-04T09:34:53.479Z,4.72
2022-12-04T09:35:53.517Z,4.67
2022-12-04T09:36:53.479Z,4.66
2022-12-04T09:37:53.465Z,4.63
2022-12-04T09:38:53.472Z,4.66
2022-12-04T09:39:53.870Z,4.70
2022-12-04T09:40:53.382Z,4.73
2022-12-04T09:41:53.405Z,4.77
2022-12-04T09:42:53.433Z,4.80
2022-12-04T09:43:53.326Z,4.85
2022-12-04T09:44:53.350Z,4.84
2022-12-04T09:45:53.442Z,4.84
2022-12-04T09:46:53.378Z,4.86
2022-12-04T09:47:53.299Z,4.86
2022-12-04T09:48:53.281Z,4.88
2022-12-04T09:49:53.564Z,4.85
2022-12-04T09:50:53.253Z,4.85
2022-12-04T09:51:53.273Z,4.84
2022-12-04T09:52:53.265Z,4.82
2022-12-04T09:53:53.261Z,4.85
2022-12-04T09:54:53.213Z,4.88
2022-12-04T09:55:53.231Z,4.91
2022-12-04T09:56:53.194Z,4.92
2022-12-04T09:57:57.050Z,4.91
2022-12-04T09:58:53.188Z,4.86
2022-12-04T09:59:53.429Z,4.88
2022-12-04T10:00:53.171Z,4.91
2022-12-04T10:01:53.168Z,4.91
2022-12-04T10:02:53.251Z,4.91
2022-12-04T10:03:53.421Z,4.96
2022-12-04T10:04:53.192Z,4.96
2022-12-04T10:05:53.131Z,5.00
2022-12-04T10:06:53.112Z,4.97
2022-12-04T10:07:53.177Z,5.00
2022-12-04T10:08:53.083Z,5.02
2022-12-04T10:09:53.332Z,5.04
2022-12-04T10:10:53.058Z,5.09
2022-12-04T10:11:53.083Z,5.10
2022-12-04T10:12:53.034Z,5.18
2022-12-04T10:13:53.040Z,5.21
2022-12-04T10:14:53.010Z,5.27
2022-12-04T10:15:53.039Z,5.25
2022-12-04T10:16:52.993Z,5.27
2022-12-04T10:17:53.006Z,5.30
2022-12-04T10:18:52.984Z,5.31
2022-12-04T10:19:53.233Z,5.38
2022-12-04T10:20:52.958Z,5.40
2022-12-04T10:21:52.969Z,5.42
2022-12-04T10:22:52.954Z,5.45
2022-12-04T10:23:52.951Z,5.49
2022-12-04T10:24:52.946Z,5.53
2022-12-04T10:25:52.921Z,5.56
2022-12-04T10:26:52.882Z,5.57
2022-12-04T10:27:52.923Z,5.57
2022-12-04T10:28:55.479Z,5.60
2022-12-04T10:29:53.059Z,5.60
2022-12-04T10:30:52.925Z,5.58
2022-12-04T10:31:52.872Z,5.54
2022-12-04T10:32:52.853Z,5.53
2022-12-04T10:33:52.842Z,5.53
2022-12-04T10:34:52.821Z,5.56
2022-12-04T10:35:52.818Z,5.56
2022-12-04T10:36:52.789Z,5.46
2022-12-04T10:37:52.796Z,5.45
2022-12-04T10:38:52.777Z,5.43
2022-12-04T10:39:52.858Z,5.42
2022-12-04T10:40:52.737Z,5.42
2022-12-04T10:41:52.765Z,5.45
2022-12-04T10:42:52.716Z,5.53
2022-12-04T10:43:52.736Z,5.58
2022-12-04T10:44:52.700Z,5.58
2022-12-04T10:45:52.710Z,5.58
2022-12-04T10:46:52.766Z,5.65
2022-12-04T10:47:52.678Z,5.71
2022-12-04T10:48:52.659Z,5.75
2022-12-04T10:49:52.888Z,5.79
2022-12-04T10:50:52.627Z,5.79
2022-12-04T10:51:52.637Z,5.85
2022-12-04T10:52:52.609Z,5.86
2022-12-04T10:53:52.639Z,5.86
2022-12-04T10:54:52.600Z,5.81
2022-12-04T10:55:52.595Z,5.79
2022-12-04T10:56:52.569Z,5.82
2022-12-04T10:57:52.577Z,5.85
2022-12-04T10:58:52.548Z,5.90
2022-12-04T10:59:52.767Z,5.90
2022-12-04T11:00:52.545Z,5.91
2022-12-04T11:01:52.573Z,5.91
2022-12-04T11:02:52.584Z,5.94
2022-12-04T11:03:52.514Z,5.93
2022-12-04T11:04:52.482Z,5.93
2022-12-04T11:05:52.519Z,5.94
2022-12-04T11:06:52.468Z,5.94
2022-12-04T11:07:52.538Z,5.86
2022-12-04T11:08:52.457Z,5.83
2022-12-04T11:09:52.469Z,5.82
2022-12-04T11:10:52.418Z,5.82
2022-12-04T11:11:52.462Z,5.83
2022-12-04T11:12:52.409Z,5.83
2022-12-04T11:13:52.412Z,5.89
2022-12-04T11:14:52.389Z,5.90
2022-12-04T11:15:52.442Z,5.96
2022-12-04T11:16:52.978Z,6.00
2022-12-04T11:17:52.387Z,6.04
2022-12-04T11:18:52.336Z,6.08
2022-12-04T11:19:52.356Z,6.11
2022-12-04T11:20:52.321Z,6.12
2022-12-04T11:21:52.335Z,6.15
2022-12-04T11:22:52.308Z,6.15
2022-12-04T11:23:52.311Z,6.14
2022-12-04T11:24:52.299Z,6.12
2022-12-04T11:25:52.273Z,6.17
2022-12-04T11:26:52.285Z,6.19
2022-12-04T11:27:52.250Z,6.22
2022-12-04T11:28:52.267Z,6.27
2022-12-04T11:29:52.220Z,6.31
2022-12-04T11:30:52.240Z,6.36
2022-12-04T11:31:52.304Z,6.40
2022-12-04T11:32:52.241Z,6.34
2022-12-04T11:33:52.179Z,6.34
2022-12-04T11:34:52.189Z,6.36
2022-12-04T11:35:52.156Z,6.34
2022-12-04T11:36:52.163Z,6.37
2022-12-04T11:37:52.137Z,6.37
2022-12-04T11:38:52.156Z,6.30
2022-12-04T11:39:52.113Z,6.34
2022-12-04T11:40:52.124Z,6.33
2022-12-04T11:41:52.101Z,6.25
2022-12-04T11:42:52.123Z,6.22
2022-12-04T11:43:55.326Z,6.18
2022-12-04T11:44:52.112Z,6.08
2022-12-04T11:45:52.050Z,6.03
2022-12-04T11:46:52.227Z,6.03
2022-12-04T11:47:52.032Z,6.00
2022-12-04T11:48:52.055Z,5.96
2022-12-04T11:49:52.021Z,5.99
2022-12-04T11:50:52.013Z,6.00
2022-12-04T11:51:51.990Z,6.00
2022-12-04T11:52:52.010Z,6.03
2022-12-04T11:53:51.966Z,6.08
2022-12-04T11:54:52.017Z,6.12
2022-12-04T11:55:51.945Z,6.14
2022-12-04T11:56:51.981Z,6.17
2022-12-04T11:57:51.925Z,6.18
2022-12-04T11:58:51.955Z,6.22
2022-12-04T11:59:51.923Z,6.22
2022-12-04T12:00:51.916Z,6.27
2022-12-04T12:01:57.719Z,6.27
2022-12-04T12:02:52.062Z,6.25
2022-12-04T12:03:51.875Z,6.27
2022-12-04T12:04:51.894Z,6.28
2022-12-04T12:05:51.854Z,6.19
2022-12-04T12:06:51.855Z,6.15
2022-12-04T12:07:51.868Z,6.14
2022-12-04T12:08:51.829Z,6.17
2022-12-04T12:09:51.802Z,6.19
2022-12-04T12:10:51.814Z,6.22
2022-12-04T12:11:51.780Z,6.30
2022-12-04T12:12:51.797Z,6.31
2022-12-04T12:13:51.756Z,6.31
2022-12-04T12:14:51.778Z,6.34
2022-12-04T12:15:51.775Z,6.33
2022-12-04T12:16:51.879Z,6.33
2022-12-04T12:17:51.720Z,6.34
2022-12-04T12:18:51.724Z,6.36
2022-12-04T12:19:51.692Z,6.37
2022-12-04T12:20:51.702Z,6.40
2022-12-04T12:21:51.684Z,6.41
2022-12-04T12:22:51.677Z,6.44
2022-12-04T12:23:51.653Z,6.46
2022-12-04T12:24:51.657Z,6.48
2022-12-04T12:25:52.477Z,6.46
2022-12-04T12:26:51.659Z,6.49
2022-12-04T12:27:51.610Z,6.46
2022-12-04T12:28:51.633Z,6.46
2022-12-04T12:29:51.591Z,6.44
2022-12-04T12:30:51.593Z,6.43
2022-12-04T12:31:51.701Z,6.43
2022-12-04T12:32:51.590Z,6.41
2022-12-04T12:33:51.549Z,6.38
2022-12-04T12:34:51.556Z,6.38
2022-12-04T12:35:51.549Z,6.40
2022-12-04T12:36:54.198Z,6.43
2022-12-04T12:37:51.515Z,6.44
2022-12-04T12:38:51.527Z,6.44
2022-12-04T12:39:51.484Z,6.49
2022-12-04T12:40:51.503Z,6.44
2022-12-04T12:41:51.473Z,6.46
2022-12-04T12:42:56.599Z,6.51
2022-12-04T12:43:51.466Z,6.54
2022-12-04T12:44:51.491Z,6.54
2022-12-04T12:45:51.463Z,6.52
2022-12-04T12:46:51.451Z,6.54
2022-12-04T12:47:51.400Z,6.54
2022-12-04T12:48:56.543Z,6.55
2022-12-04T12:49:51.389Z,6.56
2022-12-04T12:51:09.081Z,6.58
2022-12-04T12:51:51.370Z,6.56
2022-12-04T12:52:51.388Z,6.55
2022-12-04T12:53:51.370Z,6.55
2022-12-04T12:54:51.359Z,6.56
2022-12-04T12:55:51.317Z,6.56
2022-12-04T12:56:51.321Z,6.59
2022-12-04T12:57:51.319Z,6.59
2022-12-04T12:58:51.330Z,6.55
2022-12-04T12:59:51.286Z,6.54
2022-12-04T13:00:51.316Z,6.52
2022-12-04T13:01:54.766Z,6.52
2022-12-04T13:02:51.369Z,6.54
2022-12-04T13:03:51.231Z,6.55
2022-12-04T13:04:51.251Z,6.58
2022-12-04T13:05:51.229Z,6.56
2022-12-04T13:06:51.260Z,6.49
2022-12-04T13:07:51.249Z,6.49
2022-12-04T13:08:51.197Z,6.51
2022-12-04T13:09:51.170Z,6.49
2022-12-04T13:10:51.194Z,6.51
2022-12-04T13:11:51.162Z,6.51
2022-12-04T13:12:51.167Z,6.49
2022-12-04T13:13:52.984Z,6.44
2022-12-04T13:14:51.146Z,6.41
2022-12-04T13:15:51.128Z,6.41
2022-12-04T13:16:51.290Z,6.41
2022-12-04T13:17:51.089Z,6.43
2022-12-04T13:18:51.104Z,6.43
2022-12-04T13:19:51.067Z,6.46